Time,TemperatureF,DewpointF,PressureIn,WindDirection,WindDirectionDegrees,WindSpeedMPH,WindSpeedGustMPH,Humidity,HourlyPrecipIn,Conditions,Clouds,dailyrainin,SoftwareType,DateUTC
2013-07-21 00:02:00,75.0,69.8,29.97,NE,46,13.0,13.0,84,0.00,CLR,,0.00,WeatherDisplay:10.37,2013-07-20 22:02:00,
2013-07-21 00:08:00,75.0,69.8,29.97,ENE,58,16.1,16.1,84,0.00,CLR,,0.00,WeatherDisplay:10.37,2013-07-20 22:08:00,
2013-07-21 00:13:00,74.9,69.7,29.97,NE,52,15.0,15.0,84,0.00,CLR,,0.00,WeatherDisplay:10.37,2013-07-20 22:13:00,
2013-07-21 00:18:00,74.9,69.7,29.97,ENE,77,13.8,13.8,84,0.00,CLR,,0.00,WeatherDisplay:10.37,2013-07-20 22:18:00,
2013-07-21 00:24:00,74.8,69.6,29.97,ENE,62,12.7,12.7,84,0.00,CLR,,0.00,WeatherDisplay:10.37,2013-07-20 22:24:00,
2013-07-21 00:29:00,74.8,69.6,29.97,NE,53,12.7,12.7,84,0.00,CLR,,0.00,WeatherDisplay:10.37,2013-07-20 22:29:00,
2013-07-21 00:34:00,74.7,69.5,29.97,NE,54,9.2,9.2,84,0.00,CLR,,0.00,WeatherDisplay:10.37,2013-07-20 22:34:00,
2013-07-21 00:39:00,74.8,69.6,29.97,North,10,13.8,13.8,84,0.00,CLR,,0.00,WeatherDisplay:10.37,2013-07-20 22:39:00,
2013-07-21 00:44:00,74.7,69.5,29.96,NNE,27,10.4,10.4,84,0.00,CLR,,0.00,WeatherDisplay:10.37,2013-07-20 22:44:00,
2013-07-21 00:49:00,74.8,69.6,29.96,NE,48,12.7,12.7,84,0.00,CLR,,0.00,WeatherDisplay:10.37,2013-07-20 22:49:00,
2013-07-21 00:54:00,74.8,69.6,29.96,NE,54,12.0,12.0,84,0.00,CLR,,0.00,WeatherDisplay:10.37,2013-07-20 22:54:00,
2013-07-21 00:59:00,74.8,70.0,29.96,NE,41,13.8,13.8,85,0.00,CLR,,0.00,WeatherDisplay:10.37,2013-07-20 22:59:00,
2013-07-21 01:04:00,74.6,69.8,29.96,ENE,64,12.7,12.7,85,0.00,CLR,,0.00,WeatherDisplay:10.37,2013-07-20 23:04:00,
2013-07-21 01:09:00,74.3,69.5,29.96,ENE,62,9.2,9.2,85,0.00,CLR,,0.00,WeatherDisplay:10.37,2013-07-20 23:09:00,
2013-07-21 01:14:00,74.2,69.1,29.96,NE,52,11.5,11.5,84,0.00,CLR,,0.00,WeatherDisplay:10.37,2013-07-20 23:14:00,
2013-07-21 01:20:00,74.1,69.0,29.96,ENE,62,11.5,11.5,84,0.00,CLR,,0.00,WeatherDisplay:10.37,2013-07-20 23:20:00,
2013-07-21 01:25:00,74.1,69.0,29.96,NE,51,13.8,13.8,84,0.00,CLR,,0.00,WeatherDisplay:10.37,2013-07-20 23:25:00,
2013-07-21 01:30:00,74.0,68.9,29.96,ENE,59,13.8,13.8,84,0.00,CLR,,0.00,WeatherDisplay:10.37,2013-07-20 23:30:00,
2013-07-21 01:35:00,73.9,69.1,29.96,NE,54,10.4,10.4,85,0.00,CLR,,0.00,WeatherDisplay:10.37,2013-07-20 23:35:00,
2013-07-21 01:40:00,73.9,69.1,29.96,NE,54,11.5,11.5,85,0.00,CLR,,0.00,WeatherDisplay:10.37,2013-07-20 23:40:00,
2013-07-21 01:46:00,73.8,69.3,29.96,NE,56,11.0,11.0,86,0.00,CLR,,0.00,WeatherDisplay:10.37,2013-07-20 23:46:00,
2013-07-21 01:51:00,73.7,69.2,29.96,ENE,60,12.0,12.0,86,0.00,CLR,,0.00,WeatherDisplay:10.37,2013-07-20 23:51:00,
2013-07-21 01:56:00,73.6,69.5,29.96,NE,54,11.5,11.5,87,0.00,CLR,,0.00,WeatherDisplay:10.37,2013-07-20 23:56:00,
2013-07-21 02:01:00,73.5,69.4,29.96,East,85,11.5,11.5,87,0.00,CLR,,0.00,WeatherDisplay:10.37,2013-07-21 00:01:00,
2013-07-21 02:06:00,73.5,69.7,29.95,ENE,60,13.0,13.0,88,0.00,CLR,,0.00,WeatherDisplay:10.37,2013-07-21 00:06:00,
2013-07-21 02:11:00,73.5,69.7,29.95,ENE,62,15.0,15.0,88,0.00,CLR,,0.00,WeatherDisplay:10.37,2013-07-21 00:11:00,
2013-07-21 02:16:00,73.5,69.7,29.95,NE,52,13.8,13.8,88,0.00,CLR,,0.00,WeatherDisplay:10.37,2013-07-21 00:16:00,
2013-07-21 02:22:00,73.5,69.7,29.95,NE,43,12.7,12.7,88,0.00,CLR,,0.00,WeatherDisplay:10.37,2013-07-21 00:22:00,
2013-07-21 02:27:00,73.4,69.6,29.95,NE,36,14.0,14.0,88,0.00,CLR,,0.00,WeatherDisplay:10.37,2013-07-21 00:27:00,
2013-07-21 02:32:00,73.4,69.6,29.95,NE,48,11.5,11.5,88,0.00,CLR,,0.00,WeatherDisplay:10.37,2013-07-21 00:32:00,
2013-07-21 02:37:00,73.4,69.6,29.95,NE,38,11.5,11.5,88,0.00,CLR,,0.00,WeatherDisplay:10.37,2013-07-21 00:37:00,
2013-07-21 02:42:00,73.4,69.6,29.95,NE,51,10.4,10.4,88,0.00,CLR,,0.00,WeatherDisplay:10.37,2013-07-21 00:42:00,
2013-07-21 02:47:00,73.4,69.6,29.95,ENE,58,10.4,10.4,88,0.00,CLR,,0.00,WeatherDisplay:10.37,2013-07-21 00:47:00,
2013-07-21 02:53:00,73.3,69.9,29.95,NE,45,10.4,10.4,89,0.00,CLR,,0.00,WeatherDisplay:10.37,2013-07-21 00:53:00,
2013-07-21 02:58:00,73.2,69.8,29.95,NE,49,9.2,9.2,89,0.00,CLR,,0.00,WeatherDisplay:10.37,2013-07-21 00:58:00,
2013-07-21 03:03:00,73.2,69.8,29.95,NE,35,11.5,11.5,89,0.00,CLR,,0.00,WeatherDisplay:10.37,2013-07-21 01:03:00,
2013-07-21 03:08:00,73.2,69.8,29.95,ENE,58,12.0,12.0,89,0.00,CLR,,0.00,WeatherDisplay:10.37,2013-07-21 01:08:00,
2013-07-21 03:14:00,73.2,69.8,29.94,NNE,25,11.5,11.5,89,0.00,CLR,,0.00,WeatherDisplay:10.37,2013-07-21 01:14:00,
2013-07-21 03:19:00,73.2,70.1,29.94,NE,47,11.5,11.5,90,0.00,CLR,,0.00,WeatherDisplay:10.37,2013-07-21 01:19:00,
2013-07-21 03:24:00,73.1,70.0,29.94,NE,43,11.5,11.5,90,0.00,CLR,,0.00,WeatherDisplay:10.37,2013-07-21 01:24:00,
2013-07-21 03:29:00,73.1,70.0,29.94,NE,42,12.7,12.7,90,0.00,CLR,,0.00,WeatherDisplay:10.37,2013-07-21 01:29:00,
2013-07-21 03:35:00,73.0,69.6,29.94,NE,41,12.0,12.0,89,0.00,CLR,,0.00,WeatherDisplay:10.37,2013-07-21 01:35:00,
2013-07-21 03:40:00,73.1,69.7,29.94,North,4,12.0,12.0,89,0.00,CLR,,0.00,WeatherDisplay:10.37,2013-07-21 01:40:00,
2013-07-21 03:45:00,73.2,69.4,29.94,NNE,26,11.5,11.5,88,0.00,CLR,,0.00,WeatherDisplay:10.37,2013-07-21 01:45:00,
2013-07-21 03:50:00,73.5,69.4,29.94,NE,39,15.0,15.0,87,0.00,CLR,,0.00,WeatherDisplay:10.37,2013-07-21 01:50:00,
2013-07-21 03:55:00,73.6,69.5,29.94,North,4,12.0,12.0,87,0.00,CLR,,0.00,WeatherDisplay:10.37,2013-07-21 01:55:00,
2013-07-21 04:01:00,73.4,69.3,29.94,NE,55,12.0,12.0,87,0.00,CLR,,0.00,WeatherDisplay:10.37,2013-07-21 02:01:00,
2013-07-21 04:06:00,73.7,69.6,29.93,NNE,13,15.0,15.0,87,0.00,CLR,,0.00,WeatherDisplay:10.37,2013-07-21 02:06:00,
2013-07-21 04:11:00,73.6,69.2,29.93,NE,54,15.0,15.0,86,0.00,CLR,,0.00,WeatherDisplay:10.37,2013-07-21 02:11:00,
2013-07-21 04:16:00,73.7,69.6,29.94,NNE,32,16.0,16.0,87,0.00,CLR,,0.00,WeatherDisplay:10.37,2013-07-21 02:16:00,
2013-07-21 04:21:00,73.7,69.6,29.94,NE,46,15.0,15.0,87,0.00,CLR,,0.00,WeatherDisplay:10.37,2013-07-21 02:21:00,
2013-07-21 04:26:00,73.6,69.8,29.94,NE,35,14.0,14.0,88,0.00,CLR,,0.00,WeatherDisplay:10.37,2013-07-21 02:26:00,
2013-07-21 04:31:00,73.5,69.7,29.94,NE,51,12.0,12.0,88,0.00,CLR,,0.00,WeatherDisplay:10.37,2013-07-21 02:31:00,
2013-07-21 04:37:00,73.5,69.7,29.94,NNE,24,13.0,13.0,88,0.00,CLR,,0.00,WeatherDisplay:10.37,2013-07-21 02:37:00,
2013-07-21 04:42:00,73.4,70.0,29.94,ENE,58,16.1,16.1,89,0.00,CLR,,0.00,WeatherDisplay:10.37,2013-07-21 02:42:00,
2013-07-21 04:47:00,73.4,69.6,29.94,ENE,57,16.1,16.1,88,0.00,CLR,,0.00,WeatherDisplay:10.37,2013-07-21 02:47:00,
2013-07-21 04:52:00,73.5,69.7,29.94,NE,49,13.8,13.8,88,0.00,CLR,,0.00,WeatherDisplay:10.37,2013-07-21 02:52:00,
2013-07-21 04:57:00,73.6,69.8,29.94,ENE,59,16.1,16.1,88,0.00,CLR,,0.00,WeatherDisplay:10.37,2013-07-21 02:57:00,
2013-07-21 05:03:00,73.5,70.1,29.94,NE,39,15.0,15.0,89,0.00,CLR,,0.00,WeatherDisplay:10.37,2013-07-21 03:03:00,
2013-07-21 05:08:00,73.3,69.9,29.94,NE,41,17.3,17.3,89,0.00,CLR,,0.00,WeatherDisplay:10.37,2013-07-21 03:08:00,
2013-07-21 05:13:00,73.2,69.8,29.94,NE,43,14.0,14.0,89,0.00,CLR,,0.00,WeatherDisplay:10.37,2013-07-21 03:13:00,
2013-07-21 05:19:00,73.2,70.1,29.94,ENE,57,16.1,16.1,90,0.00,CLR,,0.00,WeatherDisplay:10.37,2013-07-21 03:19:00,
2013-07-21 05:24:00,73.2,70.1,29.94,NNE,30,16.1,16.1,90,0.00,CLR,,0.00,WeatherDisplay:10.37,2013-07-21 03:24:00,
2013-07-21 05:29:00,73.1,70.0,29.94,ENE,71,18.4,18.4,90,0.00,CLR,,0.00,WeatherDisplay:10.37,2013-07-21 03:29:00,
2013-07-21 05:34:00,73.1,70.0,29.94,NE,45,19.6,19.6,90,0.00,CLR,,0.00,WeatherDisplay:10.37,2013-07-21 03:34:00,
2013-07-21 05:40:00,73.0,69.9,29.94,NNE,33,16.1,16.1,90,0.00,CLR,,0.00,WeatherDisplay:10.37,2013-07-21 03:40:00,
2013-07-21 05:45:00,73.1,70.0,29.94,NE,42,15.0,15.0,90,0.00,CLR,,0.00,WeatherDisplay:10.37,2013-07-21 03:45:00,
2013-07-21 05:50:00,73.2,69.8,29.94,ENE,68,15.0,15.0,89,0.00,CLR,,0.00,WeatherDisplay:10.37,2013-07-21 03:50:00,
2013-07-21 05:55:00,73.1,70.0,29.94,NE,49,19.6,19.6,90,0.00,CLR,,0.00,WeatherDisplay:10.37,2013-07-21 03:55:00,
2013-07-21 06:00:00,73.1,69.7,29.94,NE,54,19.0,19.0,89,0.00,CLR,,0.00,WeatherDisplay:10.37,2013-07-21 04:00:00,
2013-07-21 06:01:00,73.0,69.6,29.94,ENE,64,19.6,19.6,89,0.00,CLR,,0.00,WeatherDisplay:10.37,2013-07-21 04:01:00,
2013-07-21 06:06:00,72.9,69.8,29.94,ENE,59,18.4,18.4,90,0.00,CLR,,0.00,WeatherDisplay:10.37,2013-07-21 04:06:00,
2013-07-21 06:11:00,72.9,69.8,29.94,NE,40,16.1,16.1,90,0.00,CLR,,0.00,WeatherDisplay:10.37,2013-07-21 04:11:00,
2013-07-21 06:16:00,72.8,69.7,29.94,NE,52,15.0,15.0,90,0.00,CLR,,0.00,WeatherDisplay:10.37,2013-07-21 04:16:00,
2013-07-21 06:21:00,72.7,69.6,29.94,NNE,31,18.4,18.4,90,0.00,CLR,,0.00,WeatherDisplay:10.37,2013-07-21 04:21:00,
2013-07-21 06:26:00,72.8,69.7,29.95,NE,55,16.1,16.1,90,0.00,CLR,,0.00,WeatherDisplay:10.37,2013-07-21 04:26:00,
2013-07-21 06:31:00,72.8,70.0,29.95,ENE,74,17.3,17.3,91,0.00,CLR,,0.00,WeatherDisplay:10.37,2013-07-21 04:31:00,
2013-07-21 06:36:00,72.7,69.6,29.95,NE,47,17.3,17.3,90,0.00,CLR,,0.00,WeatherDisplay:10.37,2013-07-21 04:36:00,
2013-07-21 06:41:00,72.7,69.6,29.95,ENE,64,16.1,16.1,90,0.00,CLR,,0.00,WeatherDisplay:10.37,2013-07-21 04:41:00,
2013-07-21 06:46:00,72.6,69.5,29.94,ENE,58,15.0,15.0,90,0.00,FEW,,0.00,WeatherDisplay:10.37,2013-07-21 04:46:00,
2013-07-21 06:51:00,72.7,69.9,29.95,ENE,68,17.3,17.3,91,0.00,FEW,,0.00,WeatherDisplay:10.37,2013-07-21 04:51:00,
2013-07-21 06:56:00,72.7,69.9,29.94,ENE,58,17.3,17.3,91,0.00,FEW,,0.00,WeatherDisplay:10.37,2013-07-21 04:56:00,
2013-07-21 07:01:00,72.7,69.6,29.94,East,83,15.0,15.0,90,0.00,FEW,,0.00,WeatherDisplay:10.37,2013-07-21 05:01:00,
2013-07-21 07:06:00,72.7,69.9,29.95,ENE,60,13.8,13.8,91,0.00,FEW,,0.00,WeatherDisplay:10.37,2013-07-21 05:06:00,
2013-07-21 07:11:00,72.8,70.0,29.94,ENE,73,13.8,13.8,91,0.00,FEW,,0.00,WeatherDisplay:10.37,2013-07-21 05:11:00,
2013-07-21 07:16:00,72.9,69.8,29.95,NE,48,15.0,15.0,90,0.00,FEW,,0.00,WeatherDisplay:10.37,2013-07-21 05:16:00,
2013-07-21 07:21:00,72.9,69.8,29.95,NE,43,11.5,11.5,90,0.00,FEW,,0.00,WeatherDisplay:10.37,2013-07-21 05:21:00,
2013-07-21 07:26:00,73.0,69.9,29.95,NE,41,13.8,13.8,90,0.00,FEW,,0.00,WeatherDisplay:10.37,2013-07-21 05:26:00,
2013-07-21 07:31:00,73.1,70.0,29.95,ENE,62,13.8,13.8,90,0.00,FEW,,0.00,WeatherDisplay:10.37,2013-07-21 05:31:00,
2013-07-21 07:36:00,73.2,70.1,29.95,NE,35,16.1,16.1,90,0.00,FEW,,0.00,WeatherDisplay:10.37,2013-07-21 05:36:00,
2013-07-21 07:41:00,73.4,70.3,29.95,NE,39,13.8,13.8,90,0.00,FEW,,0.00,WeatherDisplay:10.37,2013-07-21 05:41:00,
2013-07-21 07:46:00,73.5,70.4,29.95,ENE,77,13.8,13.8,90,0.00,FEW,,0.00,WeatherDisplay:10.37,2013-07-21 05:46:00,
2013-07-21 07:51:00,73.6,70.5,29.96,ENE,70,15.0,15.0,90,0.00,FEW,,0.00,WeatherDisplay:10.37,2013-07-21 05:51:00,
2013-07-21 07:56:00,73.8,70.7,29.96,NE,54,13.8,13.8,90,0.00,FEW,,0.00,WeatherDisplay:10.37,2013-07-21 05:56:00,
2013-07-21 08:01:00,73.9,70.5,29.96,ENE,61,17.3,17.3,89,0.00,FEW,,0.00,WeatherDisplay:10.37,2013-07-21 06:01:00,
2013-07-21 08:06:00,74.0,70.6,29.97,NNE,30,15.0,15.0,89,0.00,FEW,,0.00,WeatherDisplay:10.37,2013-07-21 06:06:00,
2013-07-21 08:11:00,74.2,70.7,29.97,NE,52,13.8,13.8,89,0.00,FEW,,0.00,WeatherDisplay:10.37,2013-07-21 06:11:00,
2013-07-21 08:16:00,74.4,70.9,29.98,ENE,61,13.8,13.8,89,0.00,FEW,,0.00,WeatherDisplay:10.37,2013-07-21 06:16:00,
2013-07-21 08:21:00,74.6,70.8,29.98,ENE,57,15.0,15.0,88,0.00,FEW,,0.00,WeatherDisplay:10.37,2013-07-21 06:21:00,
2013-07-21 08:26:00,74.8,71.0,29.98,NE,50,13.8,13.8,88,0.00,FEW,,0.00,WeatherDisplay:10.37,2013-07-21 06:26:00,
2013-07-21 08:31:00,75.2,71.4,29.99,ENE,67,11.5,11.5,88,0.00,FEW,,0.00,WeatherDisplay:10.37,2013-07-21 06:31:00,
2013-07-21 08:36:00,75.8,71.7,29.99,ENE,69,10.0,10.0,87,0.00,FEW,,0.00,WeatherDisplay:10.37,2013-07-21 06:36:00,
2013-07-21 08:41:00,75.7,70.9,29.99,East,85,13.8,13.8,85,0.00,FEW,,0.00,WeatherDisplay:10.37,2013-07-21 06:41:00,
2013-07-21 08:46:00,76.1,71.3,29.99,East,91,9.2,9.2,85,0.00,FEW,,0.00,WeatherDisplay:10.37,2013-07-21 06:46:00,
2013-07-21 08:51:00,76.2,70.7,29.99,East,82,14.0,14.0,83,0.00,FEW,,0.00,WeatherDisplay:10.37,2013-07-21 06:51:00,
2013-07-21 08:56:00,76.1,70.9,29.99,ENE,76,13.8,13.8,84,0.00,FEW,,0.00,WeatherDisplay:10.37,2013-07-21 06:56:00,
2013-07-21 09:01:00,76.0,70.8,29.99,ENE,76,12.7,12.7,84,0.00,FEW,,0.00,WeatherDisplay:10.37,2013-07-21 07:01:00,
2013-07-21 09:06:00,76.5,71.3,29.99,ENE,60,6.0,6.0,84,0.00,FEW,,0.00,WeatherDisplay:10.37,2013-07-21 07:06:00,
2013-07-21 09:11:00,76.9,70.3,29.99,East,89,15.0,15.0,80,0.00,FEW,,0.00,WeatherDisplay:10.37,2013-07-21 07:11:00,
2013-07-21 09:16:00,77.3,71.0,30.00,ESE,116,8.1,8.1,81,0.00,CLR,,0.00,WeatherDisplay:10.37,2013-07-21 07:16:00,
2013-07-21 09:21:00,77.5,70.8,29.99,East,95,11.5,11.5,80,0.00,CLR,,0.00,WeatherDisplay:10.37,2013-07-21 07:21:00,
2013-07-21 09:26:00,77.5,70.5,29.99,ENE,75,11.5,11.5,79,0.00,CLR,,0.00,WeatherDisplay:10.37,2013-07-21 07:26:00,
2013-07-21 09:31:00,77.6,70.2,29.99,ENE,61,15.0,15.0,78,0.00,CLR,,0.00,WeatherDisplay:10.37,2013-07-21 07:31:00,
2013-07-21 09:36:00,77.6,70.2,29.98,ENE,59,16.0,16.0,78,0.00,CLR,,0.00,WeatherDisplay:10.37,2013-07-21 07:36:00,
2013-07-21 09:41:00,77.4,69.6,29.98,ENE,61,16.1,16.1,77,0.00,CLR,,0.00,WeatherDisplay:10.37,2013-07-21 07:41:00,
2013-07-21 09:46:00,77.4,69.6,29.97,NNE,27,17.3,17.3,77,0.00,CLR,,0.00,WeatherDisplay:10.37,2013-07-21 07:46:00,
2013-07-21 09:51:00,78.0,69.4,29.97,ESE,116,18.4,18.4,75,0.00,CLR,,0.00,WeatherDisplay:10.37,2013-07-21 07:51:00,
2013-07-21 09:56:00,78.1,69.1,29.97,NE,56,16.1,16.1,74,0.00,CLR,,0.00,WeatherDisplay:10.37,2013-07-21 07:56:00,
2013-07-21 10:01:00,78.6,68.8,29.97,ENE,77,16.0,16.0,72,0.00,CLR,,0.00,WeatherDisplay:10.37,2013-07-21 08:01:00,
2013-07-21 10:06:00,78.6,68.0,29.97,ENE,57,16.1,16.1,70,0.00,CLR,,0.00,WeatherDisplay:10.37,2013-07-21 08:06:00,
2013-07-21 10:11:00,78.6,68.4,29.97,ENE,63,15.0,15.0,71,0.00,CLR,,0.00,WeatherDisplay:10.37,2013-07-21 08:11:00,
2013-07-21 10:16:00,78.8,68.6,29.97,ENE,72,15.0,15.0,71,0.00,CLR,,0.00,WeatherDisplay:10.37,2013-07-21 08:16:00,
2013-07-21 10:21:00,78.9,68.3,29.97,ENE,70,19.6,19.6,70,0.00,CLR,,0.00,WeatherDisplay:10.37,2013-07-21 08:21:00,
2013-07-21 10:26:00,79.2,67.7,29.97,NE,54,18.4,18.4,68,0.00,CLR,,0.00,WeatherDisplay:10.37,2013-07-21 08:26:00,
2013-07-21 10:31:00,79.6,67.2,29.97,NE,54,15.0,15.0,66,0.00,CLR,,0.00,WeatherDisplay:10.37,2013-07-21 08:31:00,
2013-07-21 10:36:00,80.5,69.0,29.97,East,79,14.0,14.0,68,0.00,CLR,,0.00,WeatherDisplay:10.37,2013-07-21 08:36:00,
2013-07-21 10:41:00,79.6,68.1,29.97,East,80,18.4,18.4,68,0.00,CLR,,0.00,WeatherDisplay:10.37,2013-07-21 08:41:00,
2013-07-21 10:46:00,79.2,69.4,29.97,ENE,57,16.1,16.1,72,0.00,CLR,,0.00,WeatherDisplay:10.37,2013-07-21 08:46:00,
2013-07-21 10:51:00,79.3,69.1,29.98,ENE,58,17.3,17.3,71,0.00,CLR,,0.00,WeatherDisplay:10.37,2013-07-21 08:51:00,
2013-07-21 10:56:00,79.8,69.6,29.98,ENE,78,19.0,19.0,71,0.00,CLR,,0.00,WeatherDisplay:10.37,2013-07-21 08:56:00,
2013-07-21 11:01:00,79.7,69.9,29.98,ENE,77,18.4,18.4,72,0.00,CLR,,0.00,WeatherDisplay:10.37,2013-07-21 09:01:00,
2013-07-21 11:06:00,79.7,70.7,29.98,NE,36,11.5,11.5,74,0.00,CLR,,0.00,WeatherDisplay:10.37,2013-07-21 09:06:00,
2013-07-21 11:11:00,79.4,69.6,29.98,ENE,59,23.0,23.0,72,0.00,CLR,,0.00,WeatherDisplay:10.37,2013-07-21 09:11:00,
2013-07-21 11:16:00,79.4,70.4,29.98,North,359,15.0,15.0,74,0.00,CLR,,0.00,WeatherDisplay:10.37,2013-07-21 09:16:00,
2013-07-21 11:21:00,79.2,70.2,29.98,NE,53,17.3,17.3,74,0.00,CLR,,0.00,WeatherDisplay:10.37,2013-07-21 09:21:00,
2013-07-21 11:26:00,79.7,70.3,29.98,East,90,13.8,13.8,73,0.00,CLR,,0.00,WeatherDisplay:10.37,2013-07-21 09:26:00,
2013-07-21 11:31:00,79.4,70.0,29.98,ENE,69,19.6,19.6,73,0.00,CLR,,0.00,WeatherDisplay:10.37,2013-07-21 09:31:00,
2013-07-21 11:36:00,79.6,69.8,29.98,ENE,67,21.9,21.9,72,0.00,CLR,,0.00,WeatherDisplay:10.37,2013-07-21 09:36:00,
2013-07-21 11:41:00,79.6,68.1,29.98,ENE,70,21.9,21.9,68,0.00,CLR,,0.00,WeatherDisplay:10.37,2013-07-21 09:41:00,
2013-07-21 11:46:00,80.1,67.7,29.98,ENE,61,15.0,15.0,66,0.00,CLR,,0.00,WeatherDisplay:10.37,2013-07-21 09:46:00,
2013-07-21 11:51:00,80.3,69.2,29.99,ENE,75,18.4,18.4,69,0.00,CLR,,0.00,WeatherDisplay:10.37,2013-07-21 09:51:00,
2013-07-21 11:56:00,80.0,68.5,29.98,ENE,71,15.0,15.0,68,0.00,CLR,,0.00,WeatherDisplay:10.37,2013-07-21 09:56:00,
2013-07-21 12:01:00,80.3,69.6,29.98,ENE,57,13.8,13.8,70,0.00,CLR,,0.00,WeatherDisplay:10.37,2013-07-21 10:01:00,
2013-07-21 12:06:00,80.4,69.3,29.98,ENE,78,16.0,16.0,69,0.00,CLR,,0.00,WeatherDisplay:10.37,2013-07-21 10:06:00,
2013-07-21 12:11:00,79.7,68.6,29.97,ENE,73,24.2,24.2,69,0.00,CLR,,0.00,WeatherDisplay:10.37,2013-07-21 10:11:00,
2013-07-21 12:16:00,79.6,68.5,29.97,ENE,65,21.9,21.9,69,0.00,CLR,,0.00,WeatherDisplay:10.37,2013-07-21 10:16:00,
2013-07-21 12:21:00,79.9,68.4,29.97,ENE,75,22.0,22.0,68,0.00,CLR,,0.00,WeatherDisplay:10.37,2013-07-21 10:21:00,
2013-07-21 12:26:00,79.6,67.7,29.97,ENE,76,25.3,25.3,67,0.00,CLR,,0.00,WeatherDisplay:10.37,2013-07-21 10:26:00,
2013-07-21 12:31:00,80.3,68.8,29.97,SSE,162,18.4,18.4,68,0.00,CLR,,0.00,WeatherDisplay:10.37,2013-07-21 10:31:00,
2013-07-21 12:36:00,80.4,68.4,29.97,East,79,21.9,21.9,67,0.00,CLR,,0.00,WeatherDisplay:10.37,2013-07-21 10:36:00,
2013-07-21 12:41:00,80.0,68.1,29.97,East,85,24.2,24.2,67,0.00,CLR,,0.00,WeatherDisplay:10.37,2013-07-21 10:41:00,
2013-07-21 12:46:00,80.2,68.2,29.98,ENE,57,16.1,16.1,67,0.00,CLR,,0.00,WeatherDisplay:10.37,2013-07-21 10:46:00,
2013-07-21 12:51:00,81.0,68.1,29.98,ESE,117,26.5,26.5,65,0.00,CLR,,0.00,WeatherDisplay:10.37,2013-07-21 10:51:00,
2013-07-21 12:56:00,81.3,68.9,29.98,NNE,33,14.0,14.0,66,0.00,CLR,,0.00,WeatherDisplay:10.37,2013-07-21 10:56:00,
2013-07-21 13:01:00,82.1,65.4,29.99,East,81,19.6,19.6,57,0.00,CLR,,0.00,WeatherDisplay:10.37,2013-07-21 11:01:00,
2013-07-21 13:06:00,81.5,65.3,29.99,ENE,61,19.6,19.6,58,0.00,CLR,,0.00,WeatherDisplay:10.37,2013-07-21 11:06:00,
2013-07-21 13:11:00,81.1,64.4,30.00,ENE,63,18.4,18.4,57,0.00,CLR,,0.00,WeatherDisplay:10.37,2013-07-21 11:11:00,
2013-07-21 13:16:00,81.6,64.4,30.00,ENE,65,18.4,18.4,56,0.00,CLR,,0.00,WeatherDisplay:10.37,2013-07-21 11:16:00,
2013-07-21 13:21:00,82.2,64.4,30.00,ENE,70,15.0,15.0,55,0.00,CLR,,0.00,WeatherDisplay:10.37,2013-07-21 11:21:00,
2013-07-21 13:26:00,82.4,64.6,30.00,East,83,11.5,11.5,55,0.00,CLR,,0.00,WeatherDisplay:10.37,2013-07-21 11:26:00,
2013-07-21 13:31:00,82.6,63.7,30.01,NE,54,9.2,9.2,53,0.00,CLR,,0.00,WeatherDisplay:10.37,2013-07-21 11:31:00,
2013-07-21 13:36:00,82.4,63.5,30.01,ENE,77,19.6,19.6,53,0.00,CLR,,0.00,WeatherDisplay:10.37,2013-07-21 11:36:00,
2013-07-21 13:41:00,81.9,64.1,30.01,East,99,13.8,13.8,55,0.00,CLR,,0.00,WeatherDisplay:10.37,2013-07-21 11:41:00,
2013-07-21 13:46:00,82.7,65.9,30.01,East,97,12.7,12.7,57,0.00,CLR,,0.00,WeatherDisplay:10.37,2013-07-21 11:46:00,
2013-07-21 13:51:00,83.3,65.4,30.00,East,81,15.0,15.0,55,0.00,CLR,,0.00,WeatherDisplay:10.37,2013-07-21 11:51:00,
2013-07-21 13:56:00,82.6,65.8,30.00,East,81,14.0,14.0,57,0.00,CLR,,0.00,WeatherDisplay:10.37,2013-07-21 11:56:00,
2013-07-21 14:01:00,82.7,66.4,30.00,NE,51,17.3,17.3,58,0.00,CLR,,0.00,WeatherDisplay:10.37,2013-07-21 12:01:00,
2013-07-21 14:06:00,82.7,67.4,30.00,ENE,78,16.0,16.0,60,0.00,CLR,,0.00,WeatherDisplay:10.37,2013-07-21 12:06:00,
2013-07-21 14:11:00,82.9,65.1,30.00,East,89,11.5,11.5,55,0.00,CLR,,0.00,WeatherDisplay:10.37,2013-07-21 12:11:00,
2013-07-21 14:16:00,83.1,64.7,30.00,East,89,19.6,19.6,54,0.00,FEW,,0.00,WeatherDisplay:10.37,2013-07-21 12:16:00,
2013-07-21 14:21:00,82.2,64.4,30.00,ENE,71,23.0,23.0,55,0.00,FEW,,0.00,WeatherDisplay:10.37,2013-07-21 12:21:00,
2013-07-21 14:26:00,82.3,62.9,29.99,ESE,109,16.1,16.1,52,0.00,FEW,,0.00,WeatherDisplay:10.37,2013-07-21 12:26:00,
2013-07-21 14:31:00,81.7,61.8,29.99,East,83,17.3,17.3,51,0.00,FEW,,0.00,WeatherDisplay:10.37,2013-07-21 12:31:00,
2013-07-21 14:36:00,81.5,65.3,29.98,ESE,106,18.4,18.4,58,0.00,FEW,,0.00,WeatherDisplay:10.37,2013-07-21 12:36:00,
2013-07-21 14:41:00,82.0,65.3,29.98,ESE,111,15.0,15.0,57,0.00,FEW,,0.00,WeatherDisplay:10.37,2013-07-21 12:41:00,
2013-07-21 14:46:00,82.0,63.7,29.99,ENE,62,15.0,15.0,54,0.00,FEW,,0.00,WeatherDisplay:10.37,2013-07-21 12:46:00,
2013-07-21 14:51:00,81.8,63.5,30.00,ESE,103,16.1,16.1,54,0.00,FEW,,0.00,WeatherDisplay:10.37,2013-07-21 12:51:00,
2013-07-21 14:56:00,81.9,67.1,30.01,ENE,77,9.2,9.2,61,0.00,FEW,,0.00,WeatherDisplay:10.37,2013-07-21 12:56:00,
2013-07-21 15:01:00,81.8,65.6,30.00,East,97,15.0,15.0,58,0.00,FEW,,0.00,WeatherDisplay:10.37,2013-07-21 13:01:00,
2013-07-21 15:06:00,81.8,65.6,30.00,ESE,116,9.2,9.2,58,0.00,FEW,,0.00,WeatherDisplay:10.37,2013-07-21 13:06:00,
2013-07-21 15:11:00,82.2,66.0,30.00,ESE,112,12.7,12.7,58,0.00,FEW,,0.00,WeatherDisplay:10.37,2013-07-21 13:11:00,
2013-07-21 15:16:00,81.8,64.6,30.00,East,94,13.8,13.8,56,0.00,FEW,,0.00,WeatherDisplay:10.37,2013-07-21 13:16:00,
2013-07-21 15:21:00,81.7,65.5,30.00,East,89,13.8,13.8,58,0.00,FEW,,0.00,WeatherDisplay:10.37,2013-07-21 13:21:00,
2013-07-21 15:26:00,81.6,62.3,30.00,East,93,9.2,9.2,52,0.00,FEW,,0.00,WeatherDisplay:10.37,2013-07-21 13:26:00,
2013-07-21 15:31:00,82.0,65.8,30.00,ESE,104,11.0,11.0,58,0.00,FEW,,0.00,WeatherDisplay:10.37,2013-07-21 13:31:00,
2013-07-21 15:36:00,82.4,63.5,30.00,ENE,69,11.5,11.5,53,0.00,FEW,,0.00,WeatherDisplay:10.37,2013-07-21 13:36:00,
2013-07-21 15:41:00,82.7,65.9,30.00,East,97,9.0,9.0,57,0.00,FEW,,0.00,WeatherDisplay:10.37,2013-07-21 13:41:00,
2013-07-21 15:46:00,82.7,64.9,30.00,East,100,8.1,8.1,55,0.00,FEW,,0.00,WeatherDisplay:10.37,2013-07-21 13:46:00,
2013-07-21 15:51:00,82.7,65.4,30.00,ESE,113,11.5,11.5,56,0.00,FEW,,0.00,WeatherDisplay:10.37,2013-07-21 13:51:00,
2013-07-21 15:56:00,82.7,65.9,30.00,NE,43,11.5,11.5,57,0.00,FEW,,0.00,WeatherDisplay:10.37,2013-07-21 13:56:00,
2013-07-21 16:01:00,83.2,65.4,30.00,ESE,112,13.8,13.8,55,0.00,FEW,,0.00,WeatherDisplay:10.37,2013-07-21 14:01:00,
2013-07-21 16:06:00,81.9,66.6,30.00,East,99,9.2,9.2,60,0.00,FEW,,0.00,WeatherDisplay:10.37,2013-07-21 14:06:00,
2013-07-21 16:11:00,81.2,64.0,29.99,NE,55,11.5,11.5,56,0.00,FEW,,0.00,WeatherDisplay:10.37,2013-07-21 14:11:00,
2013-07-21 16:16:00,80.8,65.1,29.99,East,87,15.0,15.0,59,0.00,SCT,,0.00,WeatherDisplay:10.37,2013-07-21 14:16:00,
2013-07-21 16:21:00,80.1,67.3,30.00,East,97,12.7,12.7,65,0.00,SCT,,0.00,WeatherDisplay:10.37,2013-07-21 14:21:00,
2013-07-21 16:26:00,79.8,66.5,30.00,East,86,15.0,15.0,64,0.00,SCT,,0.00,WeatherDisplay:10.37,2013-07-21 14:26:00,
2013-07-21 16:31:00,79.6,68.1,29.99,East,89,9.2,9.2,68,0.00,SCT,,0.00,WeatherDisplay:10.37,2013-07-21 14:31:00,
2013-07-21 16:36:00,79.3,68.2,29.98,East,85,15.0,15.0,69,0.00,SCT,,0.00,WeatherDisplay:10.37,2013-07-21 14:36:00,
2013-07-21 16:41:00,79.0,67.5,29.98,NE,37,18.4,18.4,68,0.00,SCT,,0.00,WeatherDisplay:10.37,2013-07-21 14:41:00,
2013-07-21 16:46:00,79.5,68.0,29.99,East,97,11.0,11.0,68,0.00,FEW,,0.00,WeatherDisplay:10.37,2013-07-21 14:46:00,
2013-07-21 16:51:00,80.1,69.4,29.99,ENE,59,11.0,11.0,70,0.00,FEW,,0.00,WeatherDisplay:10.37,2013-07-21 14:51:00,
2013-07-21 16:56:00,79.8,68.7,29.99,ENE,68,16.1,16.1,69,0.00,FEW,,0.00,WeatherDisplay:10.37,2013-07-21 14:56:00,
2013-07-21 17:01:00,79.6,68.1,29.99,East,79,16.1,16.1,68,0.00,FEW,,0.00,WeatherDisplay:10.37,2013-07-21 15:01:00,
2013-07-21 17:06:00,79.6,68.1,29.98,ENE,75,16.1,16.1,68,0.00,FEW,,0.00,WeatherDisplay:10.37,2013-07-21 15:06:00,
2013-07-21 17:11:00,79.7,67.8,29.98,ESE,107,11.5,11.5,67,0.00,FEW,,0.00,WeatherDisplay:10.37,2013-07-21 15:11:00,
2013-07-21 17:12:00,79.7,67.8,29.98,ENE,70,15.0,15.0,67,0.00,FEW,,0.00,WeatherDisplay:10.37,2013-07-21 15:12:00,
2013-07-21 17:17:00,79.9,67.5,29.98,East,94,18.4,18.4,66,0.00,FEW,,0.00,WeatherDisplay:10.37,2013-07-21 15:17:00,
2013-07-21 17:22:00,79.9,67.5,29.98,NE,54,13.8,13.8,66,0.00,FEW,,0.00,WeatherDisplay:10.37,2013-07-21 15:22:00,
2013-07-21 17:27:00,80.4,68.0,29.98,ENE,78,17.3,17.3,66,0.00,FEW,,0.00,WeatherDisplay:10.37,2013-07-21 15:27:00,
2013-07-21 17:32:00,80.0,68.5,29.98,East,83,10.4,10.4,68,0.00,FEW,,0.00,WeatherDisplay:10.37,2013-07-21 15:32:00,
2013-07-21 17:37:00,80.3,67.9,29.97,SE,137,16.1,16.1,66,0.00,FEW,,0.00,WeatherDisplay:10.37,2013-07-21 15:37:00,
2013-07-21 17:42:00,80.6,68.2,29.97,ENE,76,11.5,11.5,66,0.00,FEW,,0.00,WeatherDisplay:10.37,2013-07-21 15:42:00,
2013-07-21 17:47:00,80.5,68.1,29.97,East,82,12.7,12.7,66,0.00,FEW,,0.00,WeatherDisplay:10.37,2013-07-21 15:47:00,
2013-07-21 17:52:00,80.4,66.6,29.97,ENE,77,16.1,16.1,63,0.00,FEW,,0.00,WeatherDisplay:10.37,2013-07-21 15:52:00,
2013-07-21 17:57:00,80.3,66.1,29.97,ENE,65,13.8,13.8,62,0.00,FEW,,0.00,WeatherDisplay:10.37,2013-07-21 15:57:00,
2013-07-21 18:02:00,80.2,67.4,29.97,ESE,112,13.8,13.8,65,0.00,FEW,,0.00,WeatherDisplay:10.37,2013-07-21 16:02:00,
2013-07-21 18:07:00,79.9,66.6,29.97,East,91,11.5,11.5,64,0.00,FEW,,0.00,WeatherDisplay:10.37,2013-07-21 16:07:00,
2013-07-21 18:12:00,80.1,66.8,29.97,East,82,14.0,14.0,64,0.00,FEW,,0.00,WeatherDisplay:10.37,2013-07-21 16:12:00,
2013-07-21 18:17:00,79.7,66.4,29.97,East,100,12.7,12.7,64,0.00,FEW,,0.00,WeatherDisplay:10.37,2013-07-21 16:17:00,
2013-07-21 18:22:00,79.6,65.4,29.96,ESE,102,17.3,17.3,62,0.00,FEW,,0.00,WeatherDisplay:10.37,2013-07-21 16:22:00,
2013-07-21 18:27:00,79.5,66.7,29.96,ENE,68,15.0,15.0,65,0.00,FEW,,0.00,WeatherDisplay:10.37,2013-07-21 16:27:00,
2013-07-21 18:32:00,79.5,66.7,29.96,East,81,12.7,12.7,65,0.00,FEW,,0.00,WeatherDisplay:10.37,2013-07-21 16:32:00,
2013-07-21 18:37:00,79.3,65.6,29.96,East,89,17.3,17.3,63,0.00,FEW,,0.00,WeatherDisplay:10.37,2013-07-21 16:37:00,
2013-07-21 18:42:00,79.1,66.3,29.96,East,88,18.4,18.4,65,0.00,FEW,,0.00,WeatherDisplay:10.37,2013-07-21 16:42:00,
2013-07-21 18:47:00,79.0,67.1,29.96,East,98,17.0,17.0,67,0.00,FEW,,0.00,WeatherDisplay:10.37,2013-07-21 16:47:00,
2013-07-21 18:52:00,78.9,66.6,29.96,ENE,71,13.8,13.8,66,0.00,FEW,,0.00,WeatherDisplay:10.37,2013-07-21 16:52:00,
2013-07-21 18:57:00,78.7,65.9,29.96,ESE,107,20.7,20.7,65,0.00,FEW,,0.00,WeatherDisplay:10.37,2013-07-21 16:57:00,
2013-07-21 19:02:00,78.5,67.1,29.96,East,92,16.1,16.1,68,0.00,FEW,,0.00,WeatherDisplay:10.37,2013-07-21 17:02:00,
2013-07-21 19:07:00,78.3,67.7,29.96,East,100,16.1,16.1,70,0.00,FEW,,0.00,WeatherDisplay:10.37,2013-07-21 17:07:00,
2013-07-21 19:12:00,78.4,67.8,29.96,ENE,59,18.4,18.4,70,0.00,FEW,,0.00,WeatherDisplay:10.37,2013-07-21 17:12:00,
2013-07-21 19:17:00,78.3,68.1,29.96,ENE,75,16.1,16.1,71,0.00,FEW,,0.00,WeatherDisplay:10.37,2013-07-21 17:17:00,
2013-07-21 19:22:00,77.8,68.0,29.96,ESE,105,13.8,13.8,72,0.00,FEW,,0.00,WeatherDisplay:10.37,2013-07-21 17:22:00,
2013-07-21 19:27:00,77.7,67.5,29.95,ENE,66,13.8,13.8,71,0.00,FEW,,0.00,WeatherDisplay:10.37,2013-07-21 17:27:00,
2013-07-21 19:32:00,78.1,68.7,29.95,NE,50,16.1,16.1,73,0.00,FEW,,0.00,WeatherDisplay:10.37,2013-07-21 17:32:00,
2013-07-21 19:37:00,78.1,68.7,29.95,ENE,77,13.8,13.8,73,0.00,FEW,,0.00,WeatherDisplay:10.37,2013-07-21 17:37:00,
2013-07-21 19:42:00,77.8,68.4,29.95,ENE,66,13.8,13.8,73,0.00,FEW,,0.00,WeatherDisplay:10.37,2013-07-21 17:42:00,
2013-07-21 19:47:00,77.7,68.4,29.95,NE,50,17.3,17.3,73,0.00,FEW,,0.00,WeatherDisplay:10.37,2013-07-21 17:47:00,
2013-07-21 19:52:00,77.4,68.5,29.95,ENE,67,15.0,15.0,74,0.00,FEW,,0.00,WeatherDisplay:10.37,2013-07-21 17:52:00,
2013-07-21 19:57:00,77.2,68.7,29.95,ENE,75,13.8,13.8,75,0.00,FEW,,0.00,WeatherDisplay:10.37,2013-07-21 17:57:00,
2013-07-21 20:02:00,77.0,68.9,29.95,ENE,74,17.3,17.3,76,0.00,FEW,,0.00,WeatherDisplay:10.37,2013-07-21 18:02:00,
2013-07-21 20:07:00,76.9,69.1,29.95,East,86,11.5,11.5,77,0.00,FEW,,0.00,WeatherDisplay:10.37,2013-07-21 18:07:00,
2013-07-21 20:12:00,76.9,69.5,29.95,ENE,72,12.7,12.7,78,0.00,FEW,,0.00,WeatherDisplay:10.37,2013-07-21 18:12:00,
2013-07-21 20:17:00,76.6,69.2,29.95,ENE,73,18.4,18.4,78,0.00,FEW,,0.00,WeatherDisplay:10.37,2013-07-21 18:17:00,
2013-07-21 20:22:00,76.4,69.4,29.95,NE,44,13.8,13.8,79,0.00,FEW,,0.00,WeatherDisplay:10.37,2013-07-21 18:22:00,
2013-07-21 20:27:00,76.2,69.2,29.95,NE,44,13.8,13.8,79,0.00,FEW,,0.00,WeatherDisplay:10.37,2013-07-21 18:27:00,
2013-07-21 20:32:00,76.1,69.1,29.95,ENE,70,18.4,18.4,79,0.00,CLR,,0.00,WeatherDisplay:10.37,2013-07-21 18:32:00,
2013-07-21 20:37:00,76.0,69.4,29.95,ENE,68,12.7,12.7,80,0.00,CLR,,0.00,WeatherDisplay:10.37,2013-07-21 18:37:00,
2013-07-21 20:42:00,75.9,69.6,29.95,ENE,58,16.1,16.1,81,0.00,CLR,,0.00,WeatherDisplay:10.37,2013-07-21 18:42:00,
2013-07-21 20:47:00,75.7,69.5,29.95,NE,56,16.1,16.1,81,0.00,CLR,,0.00,WeatherDisplay:10.37,2013-07-21 18:47:00,
2013-07-21 20:52:00,75.6,69.7,29.95,NE,54,11.5,11.5,82,0.00,CLR,,0.00,WeatherDisplay:10.37,2013-07-21 18:52:00,
2013-07-21 20:57:00,75.5,70.0,29.95,NE,54,10.4,10.4,83,0.00,CLR,,0.00,WeatherDisplay:10.37,2013-07-21 18:57:00,
2013-07-21 21:02:00,75.3,69.8,29.95,ENE,65,12.7,12.7,83,0.00,FEW,,0.00,WeatherDisplay:10.37,2013-07-21 19:02:00,
2013-07-21 21:07:00,75.2,70.0,29.95,ENE,61,15.0,15.0,84,0.00,FEW,,0.00,WeatherDisplay:10.37,2013-07-21 19:07:00,
2013-07-21 21:12:00,75.1,69.9,29.95,ENE,71,12.7,12.7,84,0.00,FEW,,0.00,WeatherDisplay:10.37,2013-07-21 19:12:00,
2013-07-21 21:17:00,75.0,70.2,29.95,ENE,75,13.8,13.8,85,0.00,FEW,,0.00,WeatherDisplay:10.37,2013-07-21 19:17:00,
2013-07-21 21:22:00,74.9,70.1,29.96,NE,36,11.5,11.5,85,0.00,FEW,,0.00,WeatherDisplay:10.37,2013-07-21 19:22:00,
2013-07-21 21:27:00,74.9,70.1,29.96,East,84,11.5,11.5,85,0.00,FEW,,0.00,WeatherDisplay:10.37,2013-07-21 19:27:00,
2013-07-21 21:32:00,74.8,70.0,29.96,NNE,26,11.5,11.5,85,0.00,FEW,,0.00,WeatherDisplay:10.37,2013-07-21 19:32:00,
2013-07-21 21:37:00,74.8,70.0,29.97,ENE,70,12.7,12.7,85,0.00,FEW,,0.00,WeatherDisplay:10.37,2013-07-21 19:37:00,
2013-07-21 21:42:00,74.7,69.9,29.97,NNE,23,11.5,11.5,85,0.00,FEW,,0.00,WeatherDisplay:10.37,2013-07-21 19:42:00,
2013-07-21 21:47:00,74.7,69.9,29.98,ENE,69,12.7,12.7,85,0.00,FEW,,0.00,WeatherDisplay:10.37,2013-07-21 19:47:00,
2013-07-21 21:52:00,74.7,69.9,29.98,NE,49,11.5,11.5,85,0.00,FEW,,0.00,WeatherDisplay:10.37,2013-07-21 19:52:00,
2013-07-21 21:57:00,74.6,69.8,29.98,ENE,58,12.7,12.7,85,0.00,FEW,,0.00,WeatherDisplay:10.37,2013-07-21 19:57:00,
2013-07-21 22:02:00,74.6,69.8,29.98,North,4,11.5,11.5,85,0.00,FEW,,0.00,WeatherDisplay:10.37,2013-07-21 20:02:00,
2013-07-21 22:07:00,74.6,69.8,29.99,NE,37,12.7,12.7,85,0.00,FEW,,0.00,WeatherDisplay:10.37,2013-07-21 20:07:00,
2013-07-21 22:12:00,74.6,69.8,29.99,NE,52,11.5,11.5,85,0.00,FEW,,0.00,WeatherDisplay:10.37,2013-07-21 20:12:00,
2013-07-21 22:17:00,74.6,69.8,30.00,NE,44,12.7,12.7,85,0.00,FEW,,0.00,WeatherDisplay:10.37,2013-07-21 20:17:00,
2013-07-21 22:22:00,74.5,69.7,30.00,NE,44,13.8,13.8,85,0.00,FEW,,0.00,WeatherDisplay:10.37,2013-07-21 20:22:00,
2013-07-21 22:27:00,74.6,69.8,30.00,NNE,14,11.5,11.5,85,0.00,FEW,,0.00,WeatherDisplay:10.37,2013-07-21 20:27:00,
2013-07-21 22:32:00,74.6,69.8,30.01,NE,35,11.5,11.5,85,0.00,FEW,,0.00,WeatherDisplay:10.37,2013-07-21 20:32:00,
2013-07-21 22:37:00,74.6,69.8,30.01,NNE,26,6.9,6.9,85,0.00,FEW,,0.00,WeatherDisplay:10.37,2013-07-21 20:37:00,
2013-07-21 22:42:00,74.6,69.8,30.02,North,354,8.1,8.1,85,0.00,FEW,,0.00,WeatherDisplay:10.37,2013-07-21 20:42:00,
2013-07-21 22:47:00,74.6,69.4,30.02,NNE,25,5.8,5.8,84,0.00,FEW,,0.00,WeatherDisplay:10.37,2013-07-21 20:47:00,
2013-07-21 22:52:00,74.7,69.5,30.02,NNE,26,6.9,6.9,84,0.00,FEW,,0.00,WeatherDisplay:10.37,2013-07-21 20:52:00,
2013-07-21 22:57:00,74.8,69.3,30.02,NE,38,10.4,10.4,83,0.00,FEW,,0.00,WeatherDisplay:10.37,2013-07-21 20:57:00,
2013-07-21 23:02:00,75.0,69.1,30.02,NNE,21,9.2,9.2,82,0.00,FEW,,0.00,WeatherDisplay:10.37,2013-07-21 21:02:00,
2013-07-21 23:07:00,75.2,69.7,30.02,ENE,77,12.0,12.0,83,0.00,FEW,,0.00,WeatherDisplay:10.37,2013-07-21 21:07:00,
2013-07-21 23:12:00,75.1,69.6,30.02,ENE,66,11.0,11.0,83,0.00,FEW,,0.00,WeatherDisplay:10.37,2013-07-21 21:12:00,
2013-07-21 23:17:00,74.9,69.7,30.03,ENE,58,13.8,13.8,84,0.00,FEW,,0.00,WeatherDisplay:10.37,2013-07-21 21:17:00,
2013-07-21 23:22:00,74.9,69.7,30.02,East,79,11.5,11.5,84,0.00,FEW,,0.00,WeatherDisplay:10.37,2013-07-21 21:22:00,
2013-07-21 23:27:00,74.8,69.6,30.03,NE,54,9.2,9.2,84,0.00,FEW,,0.00,WeatherDisplay:10.37,2013-07-21 21:27:00,
2013-07-21 23:32:00,74.7,69.9,30.02,ENE,77,12.7,12.7,85,0.00,FEW,,0.00,WeatherDisplay:10.37,2013-07-21 21:32:00,
2013-07-21 23:37:00,74.7,69.5,30.02,NE,42,15.0,15.0,84,0.00,FEW,,0.00,WeatherDisplay:10.37,2013-07-21 21:37:00,
2013-07-21 23:42:00,74.8,69.6,30.02,East,89,15.0,15.0,84,0.00,FEW,,0.00,WeatherDisplay:10.37,2013-07-21 21:42:00,
2013-07-21 23:47:00,74.8,69.6,30.02,ENE,70,16.1,16.1,84,0.00,FEW,,0.00,WeatherDisplay:10.37,2013-07-21 21:47:00,
2013-07-21 23:52:00,74.8,70.0,30.02,East,85,11.5,11.5,85,0.00,FEW,,0.00,WeatherDisplay:10.37,2013-07-21 21:52:00,
2013-07-21 23:57:00,74.7,69.9,30.04,NNE,21,6.9,6.9,85,0.00,FEW,,0.00,WeatherDisplay:10.37,2013-07-21 21:57:00,